Time;durP1;ratioP1;P1;durP2;ratioP2;P2;SDS_P1;SDS_P2;PMS_P1;PMS_P2;Temp;Humidity;BMP_temperature;BMP_pressure;BME280_temperature;BME280_humidity;BME280_pressure;Samples;Min_cycle;Max_cycle;Signal;HPM_P1;HPM_P2
2021/03/12 00:00:43;;;;;;;2.40;0.22;;;10.20;65.40;;;;;;5053577;28;20037;-84
2021/03/12 00:03:13;;;;;;;3.30;0.70;;;10.20;65.40;;;;;;5034994;28;20041;-84
2021/03/12 00:06:00;;;;;;;0.08;0.03;;;10.20;65.40;;;;;;5037040;28;20029;-84
2021/03/12 00:08:29;;;;;;;0.90;0.43;;;10.20;66.20;;;;;;5035906;28;20040;-84
2021/03/12 00:10:55;;;;;;;0.38;0.13;;;10.20;65.50;;;;;;5039251;28;20040;-83
2021/03/12 00:13:23;;;;;;;14.55;0.50;;;10.20;65.40;;;;;;5052773;28;20028;-84
2021/03/12 00:15:49;;;;;;;2.35;0.43;;;10.10;65.50;;;;;;5050334;28;20045;-84
2021/03/12 00:18:17;;;;;;;5.95;0.43;;;10.10;65.50;;;;;;5053303;28;20029;-84
2021/03/12 00:20:43;;;;;;;2.22;0.13;;;10.10;65.60;;;;;;5056663;28;20024;-84
2021/03/12 00:23:09;;;;;;;4.72;0.22;;;10.10;66.50;;;;;;5058197;28;20037;-83
2021/03/12 00:25:43;;;;;;;0.00;0.00;;;10.00;65.70;;;;;;5057326;28;20039;-83
2021/03/12 00:28:10;;;;;;;0.70;0.22;;;10.00;65.80;;;;;;5067236;28;20039;-84
2021/03/12 00:30:37;;;;;;;0.10;0.10;;;10.00;65.80;;;;;;5066832;28;20037;-84
2021/03/12 00:33:03;;;;;;;2.00;0.50;;;9.90;65.90;;;;;;5063187;28;20047;-83
2021/03/12 00:35:30;;;;;;;0.10;0.10;;;9.90;65.90;;;;;;5058296;28;20029;-84
2021/03/12 00:37:56;;;;;;;1.23;0.60;;;9.90;65.90;;;;;;5057324;28;20029;-84
2021/03/12 00:40:25;;;;;;;5.55;0.73;;;9.90;66.10;;;;;;5062115;28;20039;-84
2021/03/12 00:42:52;;;;;;;0.85;0.22;;;9.80;66.10;;;;;;5054329;28;20045;-84
2021/03/12 00:45:18;;;;;;;0.00;0.00;;;9.80;66.10;;;;;;5054267;28;20037;-84
2021/03/12 00:47:45;;;;;;;4.30;0.63;;;9.80;66.20;;;;;;5056712;28;20049;-84
2021/03/12 00:50:12;;;;;;;0.10;0.10;;;9.80;66.20;;;;;;5056325;28;20044;-84
2021/03/12 00:52:38;;;;;;;4.22;0.52;;;9.80;66.30;;;;;;5055240;28;20044;-84
2021/03/12 00:55:05;;;;;;;2.05;0.68;;;9.70;66.30;;;;;;5056945;28;20028;-84
2021/03/12 00:57:31;;;;;;;3.28;0.32;;;9.70;66.30;;;;;;5051585;28;20037;-84
2021/03/12 00:59:57;;;;;;;2.55;0.20;;;9.70;66.40;;;;;;5057305;28;20033;-84
2021/03/12 01:02:23;;;;;;;2.42;0.17;;;9.60;66.30;;;;;;5056587;28;20045;-84
2021/03/12 01:04:49;;;;;;;0.00;0.00;;;9.60;66.40;;;;;;5036016;28;20065;-84
2021/03/12 01:07:16;;;;;;;0.03;0.00;;;9.60;66.50;;;;;;5046346;28;20048;-84
2021/03/12 01:09:42;;;;;;;0.47;0.00;;;9.60;66.50;;;;;;5066101;28;20135;-84
2021/03/12 01:12:08;;;;;;;3.20;0.32;;;9.60;66.60;;;;;;5063056;28;20044;-84
2021/03/12 01:14:34;;;;;;;0.57;0.30;;;9.50;66.60;;;;;;5020364;28;20347;-84
2021/03/12 01:17:00;;;;;;;0.00;0.00;;;9.50;66.70;;;;;;5047336;28;20477;-84
2021/03/12 01:19:26;;;;;;;0.00;0.00;;;9.50;66.70;;;;;;5064572;28;20075;-84
2021/03/12 01:21:52;;;;;;;2.10;0.00;;;9.50;66.70;;;;;;5055699;28;20041;-84
2021/03/12 01:24:18;;;;;;;0.20;0.13;;;9.50;67.60;;;;;;5053235;28;20025;-84
2021/03/12 01:26:44;;;;;;;0.00;0.00;;;9.50;66.80;;;;;;5055516;28;20474;-84
2021/03/12 01:29:11;;;;;;;0.50;0.28;;;9.50;66.80;;;;;;5056420;28;20044;-84
2021/03/12 01:31:37;;;;;;;0.00;0.00;;;9.50;66.80;;;;;;5055667;28;20041;-84
2021/03/12 01:34:03;;;;;;;4.28;0.45;;;9.50;66.90;;;;;;5056768;28;20039;-84
2021/03/12 01:36:29;;;;;;;0.00;0.00;;;9.50;66.90;;;;;;5063038;28;22229;-84
2021/03/12 01:38:55;;;;;;;0.20;0.10;;;9.50;66.90;;;;;;5062446;28;20051;-84
2021/03/12 01:41:21;;;;;;;1.33;0.22;;;9.40;66.80;;;;;;5055828;28;20032;-84
2021/03/12 01:43:47;;;;;;;0.00;0.00;;;9.40;66.90;;;;;;5058719;28;20025;-84
2021/03/12 01:46:13;;;;;;;0.75;0.25;;;9.40;66.90;;;;;;5054895;28;20071;-84
2021/03/12 01:48:40;;;;;;;4.47;0.32;;;9.40;67.00;;;;;;5051211;28;20033;-84
2021/03/12 01:51:07;;;;;;;0.45;0.10;;;9.40;67.00;;;;;;5055186;28;20049;-84
2021/03/12 01:53:33;;;;;;;0.00;0.00;;;9.40;67.00;;;;;;5055859;28;20032;-84
2021/03/12 01:56:00;;;;;;;0.45;0.00;;;9.40;67.10;;;;;;5054833;28;20040;-84
2021/03/12 01:58:26;;;;;;;2.20;0.40;;;9.40;67.10;;;;;;5056121;28;20055;-84
2021/03/12 02:00:52;;;;;;;0.00;0.00;;;9.40;67.20;;;;;;5054120;28;20397;-84
2021/03/12 02:03:22;;;;;;;5.63;0.60;;;9.40;67.20;;;;;;5036211;28;20385;-84
2021/03/12 02:05:48;;;;;;;0.32;0.08;;;9.40;67.30;;;;;;5050856;28;20033;-84
2021/03/12 02:08:14;;;;;;;2.08;0.10;;;9.40;67.40;;;;;;5063648;28;20028;-83
2021/03/12 02:10:40;;;;;;;4.00;0.77;;;9.40;67.40;;;;;;5063592;28;20021;-84
2021/03/12 02:13:29;;;;;;;2.72;0.38;;;9.30;67.40;;;;;;5045237;28;20061;-84
2021/03/12 02:16:10;;;;;;;0.00;0.00;;;9.30;67.40;;;;;;5037519;28;20032;-84
2021/03/12 02:18:41;;;;;;;3.53;0.20;;;9.30;67.50;;;;;;5041898;28;20033;-84
2021/03/12 02:21:24;;;;;;;0.03;0.00;;;9.30;67.50;;;;;;5070092;28;20036;-84
2021/03/12 02:23:50;;;;;;;0.93;0.20;;;9.30;67.60;;;;;;5056977;28;20039;-84
2021/03/12 02:26:35;;;;;;;1.10;0.08;;;9.20;67.50;;;;;;5057356;28;20041;-84
2021/03/12 02:29:04;;;;;;;2.30;0.55;;;9.20;67.60;;;;;;5056375;28;20043;-84
2021/03/12 02:31:31;;;;;;;3.60;0.25;;;9.20;67.60;;;;;;5054081;28;20032;-83
2021/03/12 02:33:58;;;;;;;11.88;0.88;;;9.20;67.70;;;;;;5054386;28;20027;-84
2021/03/12 02:36:30;;;;;;;0.80;0.20;;;9.20;67.80;;;;;;5034779;28;20052;-84
2021/03/12 02:38:56;;;;;;;3.65;0.05;;;9.20;67.80;;;;;;5038636;28;20029;-84
2021/03/12 02:41:24;;;;;;;1.55;0.22;;;9.10;68.70;;;;;;5035862;28;20032;-84
2021/03/12 02:43:51;;;;;;;1.77;0.20;;;9.10;67.90;;;;;;5059806;28;20039;-84
2021/03/12 02:46:19;;;;;;;0.32;0.30;;;9.10;67.90;;;;;;5044289;28;20048;-84
2021/03/12 02:48:45;;;;;;;0.00;0.00;;;9.10;68.00;;;;;;5049048;28;20478;-84
2021/03/12 02:51:11;;;;;;;1.17;0.57;;;9.10;68.00;;;;;;5036089;28;20044;-84
2021/03/12 02:53:38;;;;;;;1.02;0.08;;;9.00;68.00;;;;;;5062837;28;20107;-84
2021/03/12 02:56:04;;;;;;;0.00;0.00;;;9.00;68.00;;;;;;5037821;28;20059;-84
2021/03/12 02:58:31;;;;;;;0.10;0.10;;;9.00;68.10;;;;;;5054479;28;20040;-84
2021/03/12 03:00:57;;;;;;;3.10;0.45;;;9.00;68.20;;;;;;5048105;28;20398;-84
2021/03/12 03:03:23;;;;;;;3.20;1.17;;;9.00;68.20;;;;;;5037975;28;20036;-84
2021/03/12 03:05:49;;;;;;;1.13;0.28;;;8.90;68.20;;;;;;5029944;28;20044;-84
2021/03/12 03:08:15;;;;;;;1.45;0.32;;;8.90;68.30;;;;;;5047430;28;20485;-84
2021/03/12 03:10:42;;;;;;;0.10;0.10;;;8.90;68.30;;;;;;5035280;28;20033;-84
2021/03/12 03:13:08;;;;;;;1.75;0.30;;;8.90;68.30;;;;;;5037119;28;20029;-84
2021/03/12 03:15:35;;;;;;;2.80;0.28;;;8.90;68.30;;;;;;5029989;28;20033;-84
2021/03/12 03:18:01;;;;;;;4.95;0.55;;;8.90;68.30;;;;;;5051360;28;20040;-84
2021/03/12 03:20:27;;;;;;;3.30;0.30;;;8.80;68.50;;;;;;5047622;28;20500;-84
2021/03/12 03:22:53;;;;;;;1.05;0.28;;;8.80;68.40;;;;;;5031084;28;20036;-84
2021/03/12 03:25:19;;;;;;;1.75;0.45;;;8.80;68.50;;;;;;5046751;28;20029;-84
2021/03/12 03:27:45;;;;;;;0.30;0.20;;;8.80;68.50;;;;;;5047307;28;20037;-84
2021/03/12 03:30:13;;;;;;;6.70;0.13;;;8.80;68.50;;;;;;5047528;28;20036;-84
2021/03/12 03:32:39;;;;;;;0.00;0.00;;;8.80;68.50;;;;;;5046118;28;20017;-84
2021/03/12 03:35:06;;;;;;;6.18;0.45;;;8.80;68.50;;;;;;5042967;28;20032;-84
2021/03/12 03:37:32;;;;;;;0.00;0.00;;;8.80;68.50;;;;;;5062064;28;20029;-84
2021/03/12 03:39:59;;;;;;;0.00;0.00;;;8.80;68.60;;;;;;5064460;28;20056;-84
2021/03/12 03:42:27;;;;;;;0.68;0.20;;;8.80;68.50;;;;;;5033754;28;20049;-84
2021/03/12 03:44:54;;;;;;;14.48;0.88;;;8.80;68.60;;;;;;5054621;28;20021;-84
2021/03/12 03:47:20;;;;;;;5.57;0.75;;;8.80;68.60;;;;;;5053285;28;20048;-84
2021/03/12 03:49:46;;;;;;;0.73;0.10;;;8.80;68.70;;;;;;5055637;28;20378;-84
2021/03/12 03:52:12;;;;;;;0.17;0.10;;;8.80;68.70;;;;;;5029768;28;20055;-83
2021/03/12 03:54:38;;;;;;;0.00;0.00;;;8.80;68.70;;;;;;5055123;28;20029;-83
2021/03/12 03:57:05;;;;;;;0.75;0.47;;;8.80;68.70;;;;;;5056823;28;20048;-84
2021/03/12 03:59:31;;;;;;;0.63;0.20;;;8.80;68.70;;;;;;5041727;28;20033;-84
2021/03/12 04:01:57;;;;;;;0.47;0.20;;;8.70;68.80;;;;;;5044081;28;20037;-84
2021/03/12 04:04:23;;;;;;;0.00;0.00;;;8.70;68.80;;;;;;5064326;28;20481;-84
2021/03/12 04:06:49;;;;;;;12.85;0.65;;;8.70;68.80;;;;;;5055040;28;20040;-84
2021/03/12 04:09:16;;;;;;;0.30;0.15;;;8.70;68.90;;;;;;5035975;28;20041;-83
2021/03/12 04:11:42;;;;;;;0.20;0.00;;;8.70;68.90;;;;;;5040578;28;20036;-82
2021/03/12 04:14:08;;;;;;;0.00;0.00;;;8.70;68.90;;;;;;5043659;28;20033;-81
2021/03/12 04:16:35;;;;;;;0.20;0.00;;;8.70;68.90;;;;;;5037167;28;20033;-80
2021/03/12 04:19:02;;;;;;;8.18;0.30;;;8.70;69.00;;;;;;5053450;28;20035;-80
2021/03/12 04:21:28;;;;;;;0.70;0.10;;;8.70;69.00;;;;;;5055556;28;20029;-80
2021/03/12 04:23:54;;;;;;;0.00;0.00;;;8.70;69.00;;;;;;5041072;28;20381;-79
2021/03/12 04:26:20;;;;;;;0.50;0.30;;;8.70;69.00;;;;;;5039307;28;20036;-80
2021/03/12 04:28:46;;;;;;;0.00;0.00;;;8.70;69.10;;;;;;5054967;28;20416;-79
2021/03/12 04:31:12;;;;;;;2.13;0.10;;;8.60;69.00;;;;;;5057664;28;20032;-81
2021/03/12 04:33:39;;;;;;;5.82;0.22;;;8.60;69.10;;;;;;5067539;28;20036;-81
2021/03/12 04:36:06;;;;;;;0.20;0.10;;;8.60;69.20;;;;;;5053432;28;20025;-81
2021/03/12 04:38:32;;;;;;;2.38;0.28;;;8.60;69.20;;;;;;5041048;28;20462;-81
2021/03/12 04:40:58;;;;;;;2.63;0.28;;;8.60;69.30;;;;;;5056930;28;20033;-81
2021/03/12 04:43:24;;;;;;;0.00;0.00;;;8.50;69.20;;;;;;5057696;28;20390;-81
2021/03/12 04:45:50;;;;;;;0.60;0.32;;;8.50;69.30;;;;;;5060926;28;20041;-81
2021/03/12 04:48:16;;;;;;;0.00;0.00;;;8.50;69.30;;;;;;5032531;28;20056;-81
2021/03/12 04:50:43;;;;;;;1.40;0.68;;;8.50;69.30;;;;;;5038461;28;20399;-81
2021/03/12 04:53:09;;;;;;;0.55;0.32;;;8.50;69.40;;;;;;5056825;28;20033;-82
2021/03/12 04:55:35;;;;;;;0.52;0.30;;;8.50;69.50;;;;;;5056445;28;20025;-81
2021/03/12 04:58:01;;;;;;;0.25;0.15;;;8.40;69.50;;;;;;5055821;28;20391;-81
2021/03/12 05:00:27;;;;;;;0.90;0.13;;;8.40;69.50;;;;;;5034263;28;20379;-81
2021/03/12 05:02:54;;;;;;;7.88;0.40;;;8.40;69.50;;;;;;5056842;28;20033;-82
2021/03/12 05:05:21;;;;;;;2.00;0.20;;;8.40;69.60;;;;;;5035265;28;20414;-81
2021/03/12 05:07:47;;;;;;;12.65;0.88;;;8.40;69.60;;;;;;5041730;28;20045;-81
2021/03/12 05:10:13;;;;;;;12.25;0.55;;;8.40;70.30;;;;;;5049266;28;20021;-84
2021/03/12 05:12:40;;;;;;;8.20;0.30;;;8.40;69.50;;;;;;5067402;28;20021;-82
2021/03/12 05:15:07;;;;;;;7.22;0.45;;;8.50;69.60;;;;;;5068347;28;20032;-85
2021/03/12 05:17:33;;;;;;;0.85;0.10;;;8.50;69.50;;;;;;5065994;28;20032;-82
2021/03/12 05:19:59;;;;;;;0.03;0.00;;;8.50;69.50;;;;;;5076545;28;20037;-82
2021/03/12 05:22:25;;;;;;;2.33;0.30;;;8.50;69.50;;;;;;5039598;28;20044;-82
2021/03/12 05:24:51;;;;;;;0.10;0.00;;;8.50;69.50;;;;;;5055832;28;20029;-82
2021/03/12 05:27:17;;;;;;;0.73;0.43;;;8.60;69.50;;;;;;5053159;28;20036;-82
2021/03/12 05:29:43;;;;;;;0.17;0.13;;;8.60;69.40;;;;;;5040174;28;20047;-82
2021/03/12 05:32:09;;;;;;;3.30;0.17;;;8.60;69.40;;;;;;5057016;28;20037;-83
2021/03/12 05:34:35;;;;;;;15.80;0.57;;;8.60;69.40;;;;;;5055835;28;20501;-83
2021/03/12 05:37:02;;;;;;;7.82;0.17;;;8.60;69.40;;;;;;5062815;28;20033;-82
2021/03/12 05:39:28;;;;;;;4.75;0.77;;;8.70;69.40;;;;;;5053396;28;20029;-82
2021/03/12 05:41:54;;;;;;;4.88;0.22;;;8.60;69.40;;;;;;5057838;28;20041;-82
2021/03/12 05:44:20;;;;;;;7.32;0.30;;;8.60;69.40;;;;;;5057197;28;20037;-82
2021/03/12 05:46:46;;;;;;;0.30;0.20;;;8.70;69.50;;;;;;5054670;28;20033;-82
2021/03/12 05:49:13;;;;;;;2.28;0.75;;;8.60;69.50;;;;;;5055862;28;20028;-82
2021/03/12 05:51:39;;;;;;;0.00;0.00;;;8.60;69.50;;;;;;5052266;28;20021;-83
2021/03/12 05:54:06;;;;;;;1.15;0.43;;;8.60;69.60;;;;;;5055070;28;20048;-82
2021/03/12 05:56:32;;;;;;;1.60;0.25;;;8.60;69.60;;;;;;5055866;28;20032;-82
2021/03/12 05:58:58;;;;;;;14.55;0.10;;;8.60;69.60;;;;;;5055813;28;20394;-82
2021/03/12 06:01:25;;;;;;;0.45;0.00;;;8.60;69.60;;;;;;5055770;28;20029;-82
2021/03/12 06:03:51;;;;;;;0.05;0.00;;;8.60;69.70;;;;;;5053969;28;20044;-82
2021/03/12 06:06:17;;;;;;;0.32;0.20;;;8.60;69.80;;;;;;5036747;28;20047;-82
2021/03/12 06:08:43;;;;;;;0.00;0.00;;;8.50;69.80;;;;;;5057367;28;20041;-82
2021/03/12 06:11:09;;;;;;;3.30;0.40;;;8.60;69.90;;;;;;5055718;28;20036;-82
2021/03/12 06:13:55;;;;;;;0.50;0.40;;;8.50;69.90;;;;;;5055137;28;20032;-82
2021/03/12 06:16:25;;;;;;;0.40;0.20;;;8.50;69.90;;;;;;5047192;28;20029;-82
2021/03/12 06:19:19;;;;;;;0.70;0.15;;;8.50;70.00;;;;;;5053669;28;20021;-82
2021/03/12 06:21:48;;;;;;;13.90;0.15;;;8.50;70.00;;;;;;5007143;28;20037;-81
2021/03/12 06:24:21;;;;;;;1.05;0.03;;;8.40;69.90;;;;;;5054420;28;20044;-82
2021/03/12 06:26:47;;;;;;;0.57;0.00;;;8.40;69.90;;;;;;5053721;28;20029;-82
2021/03/12 06:29:13;;;;;;;0.15;0.15;;;8.40;70.00;;;;;;5055277;28;20044;-82
2021/03/12 06:31:48;;;;;;;0.40;0.00;;;8.40;70.10;;;;;;5053723;28;20469;-82
2021/03/12 06:34:14;;;;;;;13.35;0.77;;;8.30;70.10;;;;;;5054850;28;20481;-82
2021/03/12 06:36:40;;;;;;;0.10;0.08;;;8.30;70.10;;;;;;5067285;28;20398;-82
2021/03/12 06:39:06;;;;;;;0.00;0.00;;;8.30;70.10;;;;;;5054155;28;20033;-82
2021/03/12 06:41:40;;;;;;;0.38;0.10;;;8.30;70.10;;;;;;5056252;28;20040;-83
2021/03/12 06:44:28;;;;;;;3.55;0.50;;;8.30;70.10;;;;;;5054356;28;20037;-83
2021/03/12 06:46:54;;;;;;;0.00;0.00;;;8.40;70.20;;;;;;5044993;28;20041;-82
2021/03/12 06:49:20;;;;;;;1.17;0.05;;;8.40;70.10;;;;;;5042358;28;20038;-81
2021/03/12 06:52:00;;;;;;;6.22;0.43;;;8.40;70.00;;;;;;5053531;28;20490;-85
2021/03/12 06:54:28;;;;;;;1.80;0.45;;;8.50;70.00;;;;;;5050018;28;20033;-82
2021/03/12 06:56:54;;;;;;;0.93;0.20;;;8.50;69.90;;;;;;5056764;28;20033;-85
2021/03/12 06:59:33;;;;;;;6.28;0.73;;;8.60;69.80;;;;;;5054427;28;20033;-82
2021/03/12 07:02:04;;;;;;;0.00;0.00;;;8.60;69.70;;;;;;5056724;28;20485;-82
2021/03/12 07:04:30;;;;;;;10.52;0.35;;;8.80;69.60;;;;;;5054997;28;20024;-82
2021/03/12 07:06:57;;;;;;;1.75;0.45;;;8.80;69.50;;;;;;5051173;28;20040;-83
2021/03/12 07:09:24;;;;;;;7.47;0.28;;;8.90;69.40;;;;;;5037404;28;20048;-82
2021/03/12 07:11:54;;;;;;;0.32;0.30;;;8.90;69.30;;;;;;5067585;28;20021;-81
2021/03/12 07:14:21;;;;;;;0.00;0.00;;;9.00;69.40;;;;;;5054988;28;20036;-81
2021/03/12 07:16:47;;;;;;;0.10;0.10;;;9.00;69.40;;;;;;5055670;28;20033;-81
2021/03/12 07:19:14;;;;;;;4.28;0.20;;;9.00;69.40;;;;;;5052595;28;20036;-82
2021/03/12 07:21:40;;;;;;;0.35;0.03;;;9.10;69.40;;;;;;5060084;28;20052;-81
2021/03/12 07:24:06;;;;;;;0.00;0.00;;;9.20;69.40;;;;;;5036638;28;20029;-81
2021/03/12 07:26:54;;;;;;;3.33;0.08;;;9.40;69.00;;;;;;5031273;28;20040;-81
2021/03/12 07:29:22;;;;;;;0.00;0.00;;;9.80;68.30;;;;;;5060599;28;20044;-82
2021/03/12 07:31:55;;;;;;;5.57;0.08;;;10.20;67.30;;;;;;5038121;28;20406;-82
2021/03/12 07:34:26;;;;;;;2.28;0.47;;;10.60;66.60;;;;;;5039219;28;20501;-82
2021/03/12 07:36:54;;;;;;;4.07;0.13;;;10.90;65.90;;;;;;5052100;28;20025;-82
2021/03/12 07:39:24;;;;;;;0.10;0.05;;;11.30;65.30;;;;;;5038929;28;20029;-82
2021/03/12 07:41:51;;;;;;;1.35;0.63;;;11.50;64.80;;;;;;5042844;28;20037;-81
2021/03/12 07:44:20;;;;;;;12.60;0.20;;;11.70;64.50;;;;;;5038008;28;20400;-82
2021/03/12 07:46:48;;;;;;;3.60;0.17;;;11.90;64.20;;;;;;5053358;28;20041;-82
2021/03/12 07:49:27;;;;;;;0.32;0.10;;;12.10;64.00;;;;;;5058137;28;20043;-84
2021/03/12 07:51:53;;;;;;;0.00;0.00;;;12.30;63.90;;;;;;5058015;28;20033;-83
2021/03/12 07:54:39;;;;;;;0.20;0.05;;;12.40;63.70;;;;;;5038180;28;20017;-82
2021/03/12 07:57:06;;;;;;;11.70;0.30;;;12.50;63.70;;;;;;5067820;28;20029;-83
2021/03/12 07:59:58;;;;;;;0.00;0.00;;;12.60;63.70;;;;;;5060160;28;20032;-88
2021/03/12 08:02:25;;;;;;;0.43;0.00;;;12.70;63.60;;;;;;5049223;28;20735;-87
2021/03/12 08:04:51;;;;;;;0.20;0.10;;;12.90;63.40;;;;;;5016432;28;20037;-87
2021/03/12 08:07:17;;;;;;;1.13;0.15;;;13.10;63.30;;;;;;5049703;28;20494;-84
2021/03/12 08:09:47;;;;;;;0.90;0.10;;;13.20;63.10;;;;;;5051820;28;20037;-85
2021/03/12 08:12:36;;;;;;;8.77;0.10;;;13.30;62.80;;;;;;5048331;28;20458;-83
2021/03/12 08:15:15;;;;;;;0.20;0.10;;;13.50;63.60;;;;;;5050384;28;20028;-87
2021/03/12 08:17:41;;;;;;;0.00;0.00;;;13.60;62.70;;;;;;5052067;28;20040;-86
2021/03/12 08:20:23;;;;;;;0.22;0.05;;;13.70;62.80;;;;;;5053773;28;20032;-83
2021/03/12 08:22:50;;;;;;;0.32;0.00;;;13.80;62.80;;;;;;5054369;28;20493;-84
2021/03/12 08:25:43;;;;;;;0.00;0.00;;;13.80;62.60;;;;;;5034734;28;20037;-86
2021/03/12 08:28:12;;;;;;;3.20;0.65;;;14.00;62.60;;;;;;5056307;28;20426;-86
2021/03/12 08:30:38;;;;;;;0.63;0.10;;;14.10;62.40;;;;;;5054165;28;20029;-84
2021/03/12 08:33:07;;;;;;;2.33;0.25;;;14.20;62.30;;;;;;5055294;28;20402;-86
2021/03/12 08:35:38;;;;;;;0.28;0.00;;;14.30;62.30;;;;;;5054373;28;20036;-85
2021/03/12 08:38:32;;;;;;;0.50;0.20;;;14.40;62.20;;;;;;5052085;28;20036;-85
2021/03/12 08:41:00;;;;;;;1.27;0.15;;;14.40;62.20;;;;;;5056190;28;20049;-84
2021/03/12 08:43:28;;;;;;;0.00;0.00;;;14.50;62.10;;;;;;5043098;28;20397;-86
2021/03/12 08:46:02;;;;;;;0.77;0.15;;;14.60;62.00;;;;;;5068198;28;20047;-84
2021/03/12 08:48:33;;;;;;;0.10;0.10;;;14.60;62.00;;;;;;5054764;28;20057;-84
2021/03/12 08:51:15;;;;;;;0.20;0.10;;;14.70;62.10;;;;;;5057341;28;20025;-84
2021/03/12 08:53:46;;;;;;;1.42;0.10;;;14.80;61.90;;;;;;5058322;28;20608;-83
2021/03/12 08:56:12;;;;;;;0.00;0.00;;;14.90;61.80;;;;;;5056026;28;20721;-86
2021/03/12 08:58:39;;;;;;;0.75;0.22;;;15.00;61.60;;;;;;5057072;28;20104;-86
2021/03/12 09:01:11;;;;;;;0.00;0.00;;;15.10;61.40;;;;;;5051968;28;20026;-85
2021/03/12 09:03:37;;;;;;;2.67;0.10;;;15.20;61.40;;;;;;5020877;28;20382;-85
2021/03/12 09:06:10;;;;;;;3.42;0.08;;;15.20;61.30;;;;;;5053316;28;20040;-87
2021/03/12 09:08:38;;;;;;;0.43;0.10;;;15.30;61.30;;;;;;5066995;28;20048;-89
2021/03/12 09:11:09;;;;;;;0.80;0.15;;;15.30;61.20;;;;;;5025972;28;20040;-87
2021/03/12 09:13:36;;;;;;;6.82;0.40;;;15.30;61.20;;;;;;5056970;28;20036;-91
2021/03/12 09:16:03;;;;;;;0.45;0.30;;;15.30;61.20;;;;;;5056083;28;20497;-84
2021/03/12 09:18:29;;;;;;;1.02;0.08;;;15.30;61.20;;;;;;5069387;28;20035;-87
2021/03/12 09:21:15;;;;;;;0.10;0.00;;;15.40;61.10;;;;;;5055517;28;20029;-86
2021/03/12 09:24:00;;;;;;;9.73;0.13;;;15.50;61.00;;;;;;5050302;28;20033;-86
2021/03/12 09:26:30;;;;;;;0.60;0.20;;;15.50;60.80;;;;;;5056542;28;20082;-85
2021/03/12 09:29:04;;;;;;;0.85;0.30;;;15.60;60.80;;;;;;5039606;28;20032;-85
2021/03/12 09:31:32;;;;;;;0.55;0.10;;;15.50;60.80;;;;;;5052145;28;20056;-84
2021/03/12 09:33:59;;;;;;;0.88;0.13;;;15.30;61.10;;;;;;5051874;28;20033;-83
2021/03/12 09:36:42;;;;;;;0.55;0.17;;;15.00;61.60;;;;;;5051790;28;20025;-85
2021/03/12 09:39:10;;;;;;;4.78;0.20;;;14.90;62.20;;;;;;5030898;28;20405;-85
2021/03/12 09:41:40;;;;;;;0.00;0.00;;;14.80;62.30;;;;;;5041195;28;20041;-84
2021/03/12 09:44:14;;;;;;;1.70;0.00;;;15.00;62.20;;;;;;5048809;28;20505;-88
2021/03/12 09:46:50;;;;;;;3.97;0.38;;;15.20;61.90;;;;;;5050312;28;20036;-86
2021/03/12 09:49:24;;;;;;;0.90;0.30;;;15.40;61.50;;;;;;5047841;28;20044;-86
2021/03/12 09:51:52;;;;;;;0.00;0.00;;;15.60;61.80;;;;;;5049189;28;20032;-89
2021/03/12 09:54:18;;;;;;;1.27;0.60;;;15.80;60.70;;;;;;5053449;28;20025;-88
2021/03/12 09:56:49;;;;;;;5.47;0.43;;;16.00;60.40;;;;;;5035389;28;20040;-85
2021/03/12 09:59:18;;;;;;;0.63;0.28;;;16.10;60.10;;;;;;5055611;28;20032;-86
2021/03/12 10:01:44;;;;;;;1.63;0.10;;;16.20;60.00;;;;;;5050156;28;20056;-87
2021/03/12 10:04:47;;;;;;;4.45;0.10;;;16.30;59.80;;;;;;5049582;28;20029;-86
2021/03/12 10:07:16;;;;;;;0.20;0.10;;;16.40;59.90;;;;;;4969941;28;20035;-90
2021/03/12 10:09:43;;;;;;;0.00;0.00;;;16.40;59.80;;;;;;4955124;28;20058;-90
2021/03/12 10:12:15;;;;;;;0.88;0.25;;;16.40;59.70;;;;;;4939555;28;20091;-91
2021/03/12 10:14:42;;;;;;;3.95;0.52;;;16.40;59.80;;;;;;4966985;28;20038;-91
2021/03/12 10:17:17;;;;;;;0.43;0.08;;;16.40;59.80;;;;;;4938408;28;20046;-91
2021/03/12 10:19:56;;;;;;;0.85;0.40;;;16.50;59.70;;;;;;4968960;28;20081;-91
2021/03/12 10:22:32;;;;;;;0.45;0.22;;;16.50;59.50;;;;;;4950102;28;20527;-87
2021/03/12 10:25:00;;;;;;;0.00;0.00;;;16.60;59.50;;;;;;4949568;29;20038;-86
2021/03/12 10:27:32;;;;;;;0.20;0.00;;;16.60;59.40;;;;;;4963755;28;20047;-86
2021/03/12 10:29:58;;;;;;;;;;;16.50;59.20;;;;;;4955820;28;20051;-87
2021/03/12 10:32:24;;;;;;;0.30;0.15;;;16.40;59.20;;;;;;4954215;28;19918;-86
2021/03/12 10:34:55;;;;;;;0.00;0.00;;;16.20;59.50;;;;;;4923126;28;20034;-87
2021/03/12 10:37:24;;;;;;;0.00;0.00;;;16.00;59.70;;;;;;4968531;28;20026;-87
2021/03/12 10:39:51;;;;;;;3.85;0.22;;;15.80;59.90;;;;;;4957805;28;20035;-85
2021/03/12 10:42:28;;;;;;;15.70;0.43;;;15.70;60.00;;;;;;4989713;28;20048;-85
2021/03/12 10:45:02;;;;;;;0.17;0.10;;;15.80;60.10;;;;;;5034226;28;20033;-84
2021/03/12 10:47:28;;;;;;;0.55;0.15;;;15.90;59.80;;;;;;5051304;28;20037;-85
2021/03/12 10:49:54;;;;;;;0.10;0.10;;;16.10;59.60;;;;;;5049004;28;20049;-85
2021/03/12 10:52:30;;;;;;;0.10;0.00;;;16.20;59.40;;;;;;5050817;28;20028;-84
2021/03/12 10:55:03;;;;;;;0.22;0.13;;;16.40;59.10;;;;;;5049759;28;20028;-86
2021/03/12 10:57:47;;;;;;;0.00;0.00;;;16.50;58.90;;;;;;5049826;28;20025;-85
2021/03/12 11:00:22;;;;;;;0.00;0.00;;;16.70;58.60;;;;;;5046380;28;20405;-84
2021/03/12 11:02:48;;;;;;;0.10;0.08;;;16.90;58.40;;;;;;5048472;28;20029;-85
2021/03/12 11:05:16;;;;;;;0.00;0.00;;;17.00;58.10;;;;;;5048063;28;20474;-81
2021/03/12 11:07:42;;;;;;;0.00;0.00;;;16.90;58.10;;;;;;5047057;28;20041;-94
2021/03/12 11:10:09;;;;;;;4.20;0.10;;;16.70;58.20;;;;;;5049007;28;20032;-91
2021/03/12 11:12:53;;;;;;;0.30;0.22;;;16.60;58.50;;;;;;5048402;28;20032;-90
2021/03/12 11:15:20;;;;;;;0.00;0.00;;;16.50;58.60;;;;;;5048291;28;20040;-90
2021/03/12 11:17:47;;;;;;;0.20;0.10;;;16.60;58.40;;;;;;5049549;28;20029;-89
2021/03/12 11:20:16;;;;;;;0.10;0.10;;;16.60;58.10;;;;;;5048689;28;20132;-88
2021/03/12 11:22:42;;;;;;;0.00;0.00;;;16.70;58.00;;;;;;5049851;28;20032;-85
2021/03/12 11:25:09;;;;;;;0.43;0.10;;;16.60;57.90;;;;;;5029513;28;20037;-87
2021/03/12 11:27:35;;;;;;;0.00;0.00;;;16.40;58.20;;;;;;5050762;28;20017;-88
2021/03/12 11:30:04;;;;;;;0.00;0.00;;;16.00;58.80;;;;;;5029827;28;20052;-86
2021/03/12 11:32:32;;;;;;;0.00;0.00;;;15.50;59.40;;;;;;5036883;28;20036;-86
2021/03/12 11:34:59;;;;;;;0.00;0.00;;;15.10;60.20;;;;;;5058152;28;20052;-90
2021/03/12 11:37:25;;;;;;;1.60;0.10;;;14.90;60.80;;;;;;5064998;28;20026;-91
2021/03/12 11:39:51;;;;;;;0.20;0.10;;;14.90;61.10;;;;;;5033371;28;20402;-91
2021/03/12 11:42:18;;;;;;;0.10;0.00;;;15.00;61.10;;;;;;5030895;28;20049;-90
2021/03/12 11:44:44;;;;;;;0.57;0.00;;;15.10;60.90;;;;;;5050347;28;20048;-88
2021/03/12 11:47:10;;;;;;;0.30;0.00;;;15.20;60.70;;;;;;5050367;28;20037;-86
2021/03/12 11:49:36;;;;;;;0.00;0.00;;;15.30;60.40;;;;;;5050615;28;20402;-89
2021/03/12 11:52:02;;;;;;;0.00;0.00;;;15.50;60.20;;;;;;5054240;28;20028;-87
2021/03/12 11:54:29;;;;;;;2.10;0.10;;;15.70;59.90;;;;;;5033218;28;20505;-85
2021/03/12 11:56:55;;;;;;;0.30;0.10;;;15.80;59.60;;;;;;5037233;28;20029;-87
2021/03/12 11:59:21;;;;;;;0.03;0.00;;;15.90;59.50;;;;;;5054420;28;20033;-87
2021/03/12 12:01:47;;;;;;;0.22;0.00;;;15.90;59.50;;;;;;5051452;28;20041;-89
2021/03/12 12:04:14;;;;;;;0.00;0.00;;;15.90;59.50;;;;;;5029959;28;20049;-89
2021/03/12 12:06:40;;;;;;;0.80;0.03;;;16.00;59.40;;;;;;5036433;28;20029;-90
2021/03/12 12:09:06;;;;;;;21.73;0.30;;;16.10;59.30;;;;;;5040062;28;20045;-87
2021/03/12 12:11:32;;;;;;;3.10;0.32;;;16.20;59.10;;;;;;5064226;28;20389;-90
2021/03/12 12:13:59;;;;;;;0.00;0.00;;;16.40;59.00;;;;;;5042899;28;20033;-90
2021/03/12 12:16:27;;;;;;;0.00;0.00;;;16.40;58.90;;;;;;5040386;28;20099;-91
2021/03/12 12:18:54;;;;;;;0.15;0.10;;;16.40;58.90;;;;;;5055121;28;20029;-88
2021/03/12 12:21:20;;;;;;;6.68;0.10;;;16.40;59.00;;;;;;5038061;28;20037;-88
2021/03/12 12:23:47;;;;;;;0.63;0.10;;;16.40;58.90;;;;;;5058857;28;20021;-88
2021/03/12 12:26:13;;;;;;;0.63;0.20;;;16.40;58.90;;;;;;5056564;28;20040;-89
2021/03/12 12:28:39;;;;;;;0.35;0.00;;;16.20;58.90;;;;;;5036911;28;20053;-88
2021/03/12 12:31:05;;;;;;;6.63;0.45;;;16.10;59.00;;;;;;5011816;28;20485;-88
2021/03/12 12:33:31;;;;;;;0.00;0.00;;;15.80;59.10;;;;;;5034378;28;20514;-84
2021/03/12 12:35:57;;;;;;;0.47;0.32;;;15.50;59.40;;;;;;5062540;28;20046;-85
2021/03/12 12:38:23;;;;;;;0.00;0.00;;;15.20;60.20;;;;;;5066969;28;20029;-85
2021/03/12 12:40:49;;;;;;;0.00;0.00;;;14.90;60.90;;;;;;5061931;28;20045;-87
2021/03/12 12:43:15;;;;;;;0.40;0.00;;;14.80;61.30;;;;;;5057491;28;20041;-85
2021/03/12 12:45:45;;;;;;;0.60;0.15;;;14.80;61.50;;;;;;5052598;28;20410;-85
2021/03/12 12:48:11;;;;;;;1.15;0.45;;;14.60;61.60;;;;;;5054528;28;20040;-85
2021/03/12 12:50:37;;;;;;;1.65;0.03;;;14.50;61.90;;;;;;5019823;28;20493;-86
2021/03/12 12:53:03;;;;;;;0.00;0.00;;;14.40;62.20;;;;;;5053952;28;20045;-85
2021/03/12 12:55:29;;;;;;;0.10;0.00;;;14.40;62.30;;;;;;5057437;28;20413;-85
2021/03/12 12:57:55;;;;;;;0.05;0.05;;;14.50;62.20;;;;;;5066078;28;20393;-86
2021/03/12 13:00:22;;;;;;;0.10;0.00;;;14.60;61.90;;;;;;5053040;28;20033;-85